Palmer, Texas
Current Conditions -  °F | °C
As of 11:35 AM on Friday 21 Nov 2014 (Local Time) from KLNC Reporting Station
Overcast Overcast  
Wind Chill: 63°   Ceiling: 500
Heat Index: 63°   Visibility: 10mi
Dew Point: 58°   Wind: 10mph
Humidity: 85%   Direction: 150°SSE
Pressure: 30.13"   Gusts: NA
Location:  32.43°N, 96.67°W
Report Text: KLNC 211735Z AUTO 15009KT 10SM OVC005 17/15 A3013 RMK AO2 T01720146
Loading
Personal Weather Stations






























Interactive Weather Map New forecast layout! Learn more

10-Day Weather Forecast

Advertisements
Track Severe Weather on mobile